createdAt,value
2019-01-11T00:01:49.684Z,53.53
2019-01-11T00:04:18.842Z,53.37
2019-01-11T00:06:47.943Z,63.80
2019-01-11T00:09:17.675Z,54.73
2019-01-11T00:11:46.924Z,53.87
2019-01-11T00:14:22.177Z,59.17
2019-01-11T00:16:51.216Z,62.77
2019-01-11T00:19:20.262Z,55.37
2019-01-11T00:21:49.302Z,59.00
2019-01-11T00:24:18.353Z,57.50
2019-01-11T00:26:47.640Z,63.10
2019-01-11T00:29:16.607Z,59.47
2019-01-11T00:31:45.549Z,58.57
2019-01-11T00:34:14.656Z,55.73
2019-01-11T00:36:43.741Z,58.27
2019-01-11T00:39:12.934Z,63.50
2019-01-11T00:41:42.128Z,60.40
2019-01-11T00:44:11.169Z,61.87
2019-01-11T00:46:40.339Z,62.43
2019-01-11T00:49:13.515Z,63.23
2019-01-11T00:51:40.316Z,59.17
2019-01-11T00:54:09.337Z,66.17
2019-01-11T00:56:38.720Z,67.67
2019-01-11T00:59:07.872Z,61.93
2019-01-11T01:01:36.997Z,68.60
2019-01-11T01:04:06.045Z,65.80
2019-01-11T01:06:34.969Z,63.63
2019-01-11T01:09:05.801Z,69.47
2019-01-11T01:11:34.975Z,64.77
2019-01-11T01:14:03.983Z,72.17
2019-01-11T01:16:33.069Z,59.27
2019-01-11T01:19:02.136Z,61.20
2019-01-11T01:21:31.165Z,58.20
2019-01-11T01:24:00.253Z,62.87
2019-01-11T01:26:32.089Z,64.17
2019-01-11T01:29:01.629Z,63.27
2019-01-11T01:31:30.809Z,61.50
2019-01-11T01:33:59.903Z,64.37
2019-01-11T01:36:28.923Z,65.13
2019-01-11T01:38:57.929Z,62.33
2019-01-11T01:41:26.945Z,60.40
2019-01-11T01:43:55.955Z,62.43
2019-01-11T01:46:25.074Z,70.80
2019-01-11T01:48:54.110Z,65.53
2019-01-11T01:51:23.143Z,65.80
2019-01-11T01:53:52.150Z,64.63
2019-01-11T01:56:21.205Z,64.17
2019-01-11T01:58:50.321Z,68.73
2019-01-11T02:01:19.168Z,66.47
2019-01-11T02:03:48.222Z,69.97
2019-01-11T02:06:17.271Z,66.23
2019-01-11T02:08:46.332Z,64.10
2019-01-11T02:11:15.458Z,62.90
2019-01-11T02:13:44.484Z,63.47
2019-01-11T02:16:13.505Z,63.67
2019-01-11T02:18:42.468Z,56.17
2019-01-11T02:21:11.486Z,60.60
2019-01-11T02:23:40.493Z,58.57
2019-01-11T02:26:09.574Z,55.33
2019-01-11T02:28:38.692Z,54.87
2019-01-11T02:31:07.757Z,57.60
2019-01-11T02:33:36.733Z,60.47
2019-01-11T02:36:05.808Z,55.30
2019-01-11T02:38:34.810Z,56.97
2019-01-11T02:41:03.792Z,56.50
2019-01-11T02:43:32.886Z,59.97
2019-01-11T02:46:02.287Z,60.60
2019-01-11T02:48:31.374Z,61.03
2019-01-11T02:51:00.523Z,57.43
2019-01-11T02:53:29.753Z,61.37
2019-01-11T02:55:58.795Z,60.90
2019-01-11T02:58:27.752Z,62.47
2019-01-11T03:00:56.797Z,59.37
2019-01-11T03:03:25.953Z,59.50
2019-01-11T03:05:54.993Z,59.63
2019-01-11T03:08:23.999Z,64.60
2019-01-11T03:10:53.059Z,57.07
2019-01-11T03:13:22.061Z,61.40
2019-01-11T03:15:51.211Z,55.63
2019-01-11T03:18:20.183Z,66.97
2019-01-11T03:20:49.185Z,62.60
2019-01-11T03:23:18.123Z,58.43
2019-01-11T03:25:47.085Z,51.77
2019-01-11T03:28:16.808Z,58.00
2019-01-11T03:30:45.821Z,55.00
2019-01-11T03:33:14.938Z,56.67
2019-01-11T03:35:44.026Z,55.60
2019-01-11T03:38:13.215Z,56.70
2019-01-11T03:40:42.547Z,58.93
2019-01-11T03:43:11.764Z,57.03
2019-01-11T03:45:40.872Z,59.53
2019-01-11T03:48:09.918Z,61.73
2019-01-11T03:50:38.930Z,56.70
2019-01-11T03:53:07.856Z,60.57
2019-01-11T03:55:36.916Z,57.50
2019-01-11T03:58:06.006Z,56.77
2019-01-11T04:00:35.144Z,60.70
2019-01-11T04:03:04.198Z,58.13
2019-01-11T04:05:33.247Z,61.87
2019-01-11T04:08:02.328Z,62.13
2019-01-11T04:10:31.364Z,64.00
2019-01-11T04:13:00.380Z,60.07
2019-01-11T04:15:29.387Z,56.77
2019-01-11T04:18:23.837Z,65.27
2019-01-11T04:20:52.967Z,59.63
2019-01-11T04:23:22.019Z,64.63
2019-01-11T04:25:50.954Z,62.90
2019-01-11T04:28:19.983Z,61.83
2019-01-11T04:30:48.915Z,66.07
2019-01-11T04:33:17.980Z,70.47
2019-01-11T04:35:47.731Z,64.70
2019-01-11T04:38:16.756Z,67.57
2019-01-11T04:40:45.895Z,63.03
2019-01-11T04:43:14.905Z,67.87
2019-01-11T04:45:43.988Z,78.93
2019-01-11T04:48:13.009Z,66.23
2019-01-11T04:50:45.051Z,68.27
2019-01-11T04:53:14.077Z,66.77
2019-01-11T04:55:43.223Z,63.27
2019-01-11T04:58:12.254Z,61.13
2019-01-11T05:00:41.177Z,62.23
2019-01-11T05:03:10.254Z,66.37
2019-01-11T05:05:39.422Z,58.23
2019-01-11T05:08:08.612Z,61.73
2019-01-11T05:10:37.584Z,74.07
2019-01-11T05:13:25.705Z,60.23
2019-01-11T05:15:54.876Z,57.57
2019-01-11T05:18:24.111Z,59.17
2019-01-11T05:20:53.285Z,55.83
2019-01-11T05:23:22.364Z,56.23
2019-01-11T05:25:51.386Z,59.60
2019-01-11T05:28:20.345Z,54.73
2019-01-11T05:30:49.362Z,60.57
2019-01-11T05:33:18.425Z,55.13
2019-01-11T05:35:47.370Z,53.93
2019-01-11T05:38:16.974Z,56.73
2019-01-11T05:40:45.983Z,56.27
2019-01-11T05:43:15.119Z,54.17
2019-01-11T05:45:44.148Z,56.13
2019-01-11T05:48:13.130Z,49.60
2019-01-11T05:50:42.270Z,48.40
2019-01-11T05:53:11.310Z,51.77
2019-01-11T05:55:50.508Z,51.03
2019-01-11T05:58:44.753Z,50.37
2019-01-11T06:01:14.698Z,51.70
2019-01-11T06:03:43.653Z,49.77
2019-01-11T06:06:12.762Z,48.30
2019-01-11T06:09:00.935Z,45.77
2019-01-11T06:11:29.957Z,46.00
2019-01-11T06:13:58.981Z,42.77
2019-01-11T06:16:28.149Z,39.03
2019-01-11T06:18:57.219Z,43.83
2019-01-11T06:21:26.385Z,39.83
2019-01-11T06:23:55.346Z,42.80
2019-01-11T06:26:24.399Z,39.47
2019-01-11T06:28:53.423Z,40.90
2019-01-11T06:31:23.753Z,45.23
2019-01-11T06:33:52.903Z,46.93
2019-01-11T06:36:21.922Z,45.90
2019-01-11T06:38:51.073Z,43.60
2019-01-11T06:41:20.379Z,45.10
2019-01-11T06:43:50.913Z,48.10
2019-01-11T06:46:21.851Z,48.00
2019-01-11T06:48:50.832Z,46.60
2019-01-11T06:51:19.947Z,39.13
2019-01-11T06:53:49.070Z,45.00
2019-01-11T06:56:18.065Z,46.17
2019-01-11T06:58:47.091Z,48.63
2019-01-11T07:01:16.081Z,41.37
2019-01-11T07:03:45.134Z,51.40
2019-01-11T07:06:15.570Z,46.83
2019-01-11T07:08:44.636Z,48.53
2019-01-11T07:11:13.610Z,45.90
2019-01-11T07:13:42.533Z,45.87
2019-01-11T07:16:11.545Z,50.37
2019-01-11T07:18:40.580Z,39.93
2019-01-11T07:21:09.604Z,50.43
2019-01-11T07:23:38.748Z,46.80
2019-01-11T07:26:07.798Z,51.60
2019-01-11T07:28:36.777Z,51.47
2019-01-11T07:31:14.460Z,43.57
2019-01-11T07:34:02.655Z,46.97
2019-01-11T07:36:38.346Z,52.77
2019-01-11T07:39:18.329Z,47.30
2019-01-11T07:41:47.627Z,49.43
2019-01-11T07:44:16.752Z,47.07
2019-01-11T07:46:45.737Z,56.80
2019-01-11T07:49:14.816Z,49.10
2019-01-11T07:51:43.749Z,47.10
2019-01-11T07:54:12.762Z,53.37
2019-01-11T07:56:41.801Z,53.33
2019-01-11T07:59:10.770Z,45.97
2019-01-11T08:01:39.937Z,49.40
2019-01-11T08:04:09.461Z,43.17
2019-01-11T08:06:38.538Z,46.67
2019-01-11T08:09:08.850Z,51.37
2019-01-11T08:11:37.957Z,48.40
2019-01-11T08:14:07.744Z,60.77
2019-01-11T08:16:36.772Z,54.07
2019-01-11T08:19:05.641Z,53.17
2019-01-11T08:21:34.744Z,58.33
2019-01-11T08:24:03.716Z,60.30
2019-01-11T08:26:32.856Z,62.80
2019-01-11T08:29:01.799Z,58.63
2019-01-11T08:31:34.714Z,64.40
2019-01-11T08:34:01.668Z,64.60
2019-01-11T08:36:30.644Z,62.10
2019-01-11T08:38:59.628Z,63.10
2019-01-11T08:41:28.565Z,49.27
2019-01-11T08:43:57.577Z,51.03
2019-01-11T08:46:26.480Z,57.10
2019-01-11T08:48:55.501Z,45.57
2019-01-11T08:51:24.442Z,45.97
2019-01-11T08:53:53.502Z,49.80
2019-01-11T08:56:22.736Z,42.43
2019-01-11T08:58:51.759Z,44.90
2019-01-11T09:01:20.721Z,41.47
2019-01-11T09:03:49.758Z,49.63
2019-01-11T09:06:18.750Z,53.70
2019-01-11T09:08:48.035Z,45.67
2019-01-11T09:11:17.366Z,46.17
2019-01-11T09:13:46.323Z,38.80
2019-01-11T09:16:20.683Z,40.97
2019-01-11T09:18:53.077Z,46.43
2019-01-11T09:21:22.029Z,42.77
2019-01-11T09:23:50.987Z,40.93
2019-01-11T09:26:20.063Z,38.37
2019-01-11T09:28:49.061Z,42.37
2019-01-11T09:31:18.073Z,35.13
2019-01-11T09:33:47.151Z,35.10
2019-01-11T09:36:16.190Z,41.37
2019-01-11T09:38:45.267Z,39.00
2019-01-11T09:41:14.490Z,35.87
2019-01-11T09:43:43.477Z,33.40
2019-01-11T09:46:12.512Z,31.67
2019-01-11T09:48:41.539Z,32.07
2019-01-11T09:51:15.641Z,36.33
2019-01-11T09:53:41.322Z,32.83
2019-01-11T09:56:10.301Z,26.63
2019-01-11T09:58:39.269Z,34.03
2019-01-11T10:01:08.358Z,35.47
2019-01-11T10:03:37.402Z,29.17
2019-01-11T10:06:06.526Z,29.10
2019-01-11T10:08:35.686Z,27.70
2019-01-11T10:11:04.608Z,27.53
2019-01-11T10:13:33.632Z,37.03
2019-01-11T10:16:02.662Z,34.67
2019-01-11T10:18:31.608Z,31.93
2019-01-11T10:21:00.646Z,34.87
2019-01-11T10:23:29.770Z,31.33
2019-01-11T10:25:58.842Z,34.90
2019-01-11T10:28:28.038Z,27.23
2019-01-11T10:31:00.663Z,28.10
2019-01-11T10:33:27.780Z,29.80
2019-01-11T10:35:56.890Z,40.60
2019-01-11T10:38:25.906Z,27.60
2019-01-11T10:40:54.990Z,29.40
2019-01-11T10:43:23.940Z,27.17
2019-01-11T10:45:53.018Z,35.03
2019-01-11T10:48:22.097Z,24.33
2019-01-11T10:50:51.140Z,21.87
2019-01-11T10:53:20.148Z,29.13
2019-01-11T10:56:08.270Z,23.20
2019-01-11T10:58:37.206Z,20.73
2019-01-11T11:01:06.246Z,20.37
2019-01-11T11:03:35.643Z,20.03
2019-01-11T11:06:04.749Z,27.63
2019-01-11T11:08:33.791Z,18.67
2019-01-11T11:11:02.869Z,22.73
2019-01-11T11:13:31.899Z,22.60
2019-01-11T11:16:00.832Z,17.57
2019-01-11T11:18:29.946Z,21.60
2019-01-11T11:20:58.816Z,24.10
2019-01-11T11:23:27.885Z,22.20
2019-01-11T11:25:56.846Z,23.00
2019-01-11T11:28:25.849Z,26.27
2019-01-11T11:30:54.890Z,20.10
2019-01-11T11:33:26.600Z,19.00
2019-01-11T11:35:55.586Z,24.27
2019-01-11T11:38:24.688Z,13.93
2019-01-11T11:40:53.746Z,18.53
2019-01-11T11:43:22.916Z,21.53
2019-01-11T11:45:51.904Z,20.70
2019-01-11T11:48:20.901Z,16.67
2019-01-11T11:50:49.964Z,20.77
2019-01-11T11:53:19.050Z,20.93
2019-01-11T11:55:50.222Z,16.67
2019-01-11T11:58:19.349Z,13.87
2019-01-11T12:00:48.629Z,19.77
2019-01-11T12:03:17.676Z,13.67
2019-01-11T12:05:46.662Z,12.27
2019-01-11T12:08:15.686Z,16.83
2019-01-11T12:10:44.788Z,12.27
2019-01-11T12:13:13.718Z,12.90
2019-01-11T12:15:43.054Z,12.27
2019-01-11T12:18:12.117Z,12.60
2019-01-11T12:20:41.181Z,9.83
2019-01-11T12:23:10.262Z,14.03
2019-01-11T12:25:39.381Z,14.97
2019-01-11T12:28:08.306Z,15.93
2019-01-11T12:30:37.387Z,11.67
2019-01-11T12:33:06.429Z,11.63
2019-01-11T12:35:35.352Z,16.90
2019-01-11T12:38:04.281Z,11.93
2019-01-11T12:40:33.335Z,9.20
2019-01-11T12:43:02.413Z,10.97
2019-01-11T12:45:31.641Z,12.33
2019-01-11T12:48:00.583Z,12.77
2019-01-11T12:50:29.558Z,10.57
2019-01-11T12:52:58.570Z,8.67
2019-01-11T12:55:27.602Z,8.27
2019-01-11T12:57:56.473Z,9.47
2019-01-11T13:00:25.620Z,8.63
2019-01-11T13:02:54.633Z,11.73
2019-01-11T13:05:23.651Z,13.50
2019-01-11T13:07:52.675Z,18.10
2019-01-11T13:10:21.917Z,11.53
2019-01-11T13:12:51.176Z,10.63
2019-01-11T13:15:22.092Z,15.23
2019-01-11T13:17:51.108Z,10.13
2019-01-11T13:20:21.461Z,12.77
2019-01-11T13:22:50.803Z,17.07
2019-01-11T13:25:19.854Z,12.93
2019-01-11T13:27:48.804Z,9.63
2019-01-11T13:30:19.166Z,11.07
2019-01-11T13:32:48.306Z,10.87
2019-01-11T13:35:17.426Z,14.07
2019-01-11T13:37:46.553Z,12.93
2019-01-11T13:40:21.093Z,11.43
2019-01-11T13:42:50.243Z,12.53
2019-01-11T13:45:19.159Z,11.43
2019-01-11T13:47:48.159Z,11.20
2019-01-11T13:50:37.228Z,8.20
2019-01-11T13:53:07.978Z,6.23
2019-01-11T13:55:37.055Z,8.67
2019-01-11T13:58:06.080Z,9.00
2019-01-11T14:00:35.173Z,8.73
2019-01-11T14:03:04.261Z,7.23
2019-01-11T14:05:33.287Z,6.17
2019-01-11T14:08:02.329Z,10.23
2019-01-11T14:10:31.371Z,7.63
2019-01-11T14:13:00.456Z,7.27
2019-01-11T14:15:29.633Z,9.47
2019-01-11T14:17:58.747Z,8.03
2019-01-11T14:20:27.810Z,9.07
2019-01-11T14:22:56.934Z,8.20
2019-01-11T14:25:25.886Z,8.47
2019-01-11T14:27:54.834Z,8.90
2019-01-11T14:30:24.090Z,8.17
2019-01-11T14:32:53.095Z,8.03
2019-01-11T14:35:22.176Z,9.30
2019-01-11T14:37:51.213Z,8.93
2019-01-11T14:40:20.306Z,12.53
2019-01-11T14:42:49.354Z,11.60
2019-01-11T14:45:18.652Z,5.23
2019-01-11T14:47:47.899Z,12.27
2019-01-11T14:50:18.546Z,12.83
2019-01-11T14:52:47.860Z,13.53
2019-01-11T14:55:16.930Z,12.83
2019-01-11T14:57:46.013Z,10.90
2019-01-11T15:00:20.136Z,10.50
2019-01-11T15:02:49.116Z,10.70
2019-01-11T15:05:18.398Z,8.90
2019-01-11T15:07:47.426Z,9.60
2019-01-11T15:10:17.881Z,12.93
2019-01-11T15:13:06.058Z,10.30
2019-01-11T15:15:35.057Z,10.97
2019-01-11T15:18:04.081Z,16.67
2019-01-11T15:20:36.047Z,13.83
2019-01-11T15:23:05.131Z,13.73
2019-01-11T15:25:34.163Z,13.10
2019-01-11T15:28:03.307Z,13.20
2019-01-11T15:30:32.307Z,14.67
2019-01-11T15:33:01.311Z,9.77
2019-01-11T15:35:30.368Z,8.57
2019-01-11T15:37:59.441Z,10.80
2019-01-11T15:40:36.254Z,13.43
2019-01-11T15:43:01.064Z,18.43
2019-01-11T15:45:33.735Z,12.57
2019-01-11T15:48:02.751Z,13.60
2019-01-11T15:50:59.911Z,7.37
2019-01-11T15:53:36.472Z,9.87
2019-01-11T15:56:08.152Z,15.10
2019-01-11T15:58:37.337Z,9.63
2019-01-11T16:01:06.566Z,11.93
2019-01-11T16:03:35.875Z,19.00
2019-01-11T16:06:32.034Z,14.13
2019-01-11T16:10:01.526Z,14.33
2019-01-11T16:12:42.344Z,12.43
2019-01-11T16:15:54.473Z,9.17
2019-01-11T16:18:28.854Z,13.17
2019-01-11T16:20:57.886Z,11.60
2019-01-11T16:23:26.886Z,11.63
2019-01-11T16:25:56.162Z,12.07
2019-01-11T16:28:25.208Z,7.27
2019-01-11T16:30:54.230Z,13.97
2019-01-11T16:33:23.166Z,15.50
2019-01-11T16:35:52.174Z,9.63
2019-01-11T16:38:21.271Z,9.10
2019-01-11T16:40:51.684Z,9.43
2019-01-11T16:43:20.666Z,10.13
2019-01-11T16:45:49.717Z,6.70
2019-01-11T16:48:18.851Z,13.07
2019-01-11T16:50:47.815Z,13.57
2019-01-11T16:53:16.885Z,13.70
2019-01-11T16:55:46.583Z,10.00
2019-01-11T16:58:15.785Z,14.13
2019-01-11T17:00:44.789Z,9.90
2019-01-11T17:03:13.921Z,10.37
2019-01-11T17:05:43.011Z,11.20
2019-01-11T17:08:12.093Z,10.67
2019-01-11T17:10:41.024Z,10.17
2019-01-11T17:13:09.939Z,12.40
2019-01-11T17:15:58.232Z,11.47
2019-01-11T17:18:27.354Z,12.20
2019-01-11T17:20:56.347Z,12.83
2019-01-11T17:23:25.223Z,18.33
2019-01-11T17:25:54.373Z,20.40
2019-01-11T17:28:23.369Z,19.47
2019-01-11T17:30:52.393Z,14.83
2019-01-11T17:33:21.485Z,14.77
2019-01-11T17:35:50.546Z,14.63
2019-01-11T17:38:19.802Z,13.07
2019-01-11T17:40:48.900Z,14.60
2019-01-11T17:43:18.058Z,11.30
2019-01-11T17:45:47.161Z,15.10
2019-01-11T17:48:16.236Z,15.17
2019-01-11T17:50:45.232Z,17.47
2019-01-11T17:53:14.260Z,14.93
2019-01-11T17:55:43.623Z,16.03
2019-01-11T17:58:12.640Z,14.57
2019-01-11T18:00:43.105Z,15.53
2019-01-11T18:03:12.250Z,9.30
2019-01-11T18:05:41.360Z,12.40
2019-01-11T18:08:10.609Z,18.27
2019-01-11T18:10:39.802Z,10.50
2019-01-11T18:13:08.939Z,11.67
2019-01-11T18:15:38.077Z,15.47
2019-01-11T18:18:07.337Z,14.03
2019-01-11T18:20:36.410Z,10.17
2019-01-11T18:23:07.007Z,12.17
2019-01-11T18:25:36.516Z,9.43
2019-01-11T18:28:05.648Z,8.67
2019-01-11T18:30:34.865Z,15.17
2019-01-11T18:33:03.981Z,11.07
2019-01-11T18:35:33.181Z,10.47
2019-01-11T18:38:02.307Z,10.00
2019-01-11T18:40:50.707Z,15.97
2019-01-11T18:43:20.287Z,13.13
2019-01-11T18:45:49.299Z,12.17
2019-01-11T18:48:18.507Z,15.53
2019-01-11T18:50:47.749Z,14.57
2019-01-11T18:53:19.837Z,9.83
2019-01-11T18:55:48.885Z,10.23
2019-01-11T18:58:18.050Z,18.37
2019-01-11T19:00:46.983Z,15.03
2019-01-11T19:03:16.264Z,12.30
2019-01-11T19:05:45.310Z,13.63
2019-01-11T19:08:14.324Z,17.30
2019-01-11T19:10:43.428Z,13.40
2019-01-11T19:13:12.862Z,9.47
2019-01-11T19:15:41.881Z,11.57
2019-01-11T19:18:10.926Z,10.87
2019-01-11T19:20:39.948Z,10.57
2019-01-11T19:23:09.036Z,15.80
2019-01-11T19:25:38.012Z,12.70
2019-01-11T19:28:07.049Z,16.57
2019-01-11T19:30:36.099Z,12.27
2019-01-11T19:33:05.264Z,14.30
2019-01-11T19:35:34.556Z,10.27
2019-01-11T19:38:03.752Z,13.63
2019-01-11T19:40:32.851Z,10.50
2019-01-11T19:43:02.051Z,15.90
2019-01-11T19:45:31.062Z,20.07
2019-01-11T19:48:00.185Z,14.33
2019-01-11T19:50:29.236Z,13.40
2019-01-11T19:52:58.364Z,14.90
2019-01-11T19:55:27.537Z,13.83
2019-01-11T19:57:56.680Z,13.70
2019-01-11T20:00:27.614Z,8.03
2019-01-11T20:02:56.674Z,11.43
2019-01-11T20:05:26.710Z,12.90
2019-01-11T20:07:55.747Z,14.70
2019-01-11T20:10:29.634Z,18.13
2019-01-11T20:12:58.443Z,16.43
2019-01-11T20:15:27.569Z,10.47
2019-01-11T20:17:56.915Z,13.50
2019-01-11T20:20:26.060Z,10.17
2019-01-11T20:23:02.192Z,13.50
2019-01-11T20:25:26.522Z,15.07
2019-01-11T20:27:55.537Z,10.23
2019-01-11T20:30:28.554Z,8.70
2019-01-11T20:32:57.654Z,12.63
2019-01-11T20:35:26.894Z,8.37
2019-01-11T20:37:55.982Z,11.97
2019-01-11T20:40:25.092Z,9.53
2019-01-11T20:42:54.084Z,8.93
2019-01-11T20:45:23.002Z,13.03
2019-01-11T20:47:52.092Z,12.07
2019-01-11T20:50:25.508Z,8.90
2019-01-11T20:52:55.336Z,11.57
2019-01-11T20:55:24.505Z,11.63
2019-01-11T20:57:54.108Z,11.10
2019-01-11T21:00:29.047Z,8.13
2019-01-11T21:03:17.517Z,13.33
2019-01-11T21:05:46.692Z,5.97
2019-01-11T21:08:15.728Z,9.33
2019-01-11T21:10:44.953Z,10.37
2019-01-11T21:13:14.223Z,14.53
2019-01-11T21:15:43.251Z,11.77
2019-01-11T21:18:12.259Z,11.73
2019-01-11T21:20:41.258Z,6.90
2019-01-11T21:23:10.385Z,14.67
2019-01-11T21:25:39.485Z,7.53
2019-01-11T21:28:08.481Z,13.30
2019-01-11T21:30:37.655Z,14.13
2019-01-11T21:33:06.770Z,14.33
2019-01-11T21:35:35.859Z,15.30
2019-01-11T21:38:04.907Z,17.67
2019-01-11T21:40:33.925Z,20.13
2019-01-11T21:43:02.968Z,14.57
2019-01-11T21:45:32.248Z,13.20
2019-01-11T21:48:01.261Z,13.87
2019-01-11T21:50:30.189Z,14.73
2019-01-11T21:52:59.416Z,18.20
2019-01-11T21:55:28.487Z,22.93
2019-01-11T21:57:57.603Z,14.27
2019-01-11T22:00:29.770Z,19.60
2019-01-11T22:02:58.776Z,25.40
2019-01-11T22:05:28.012Z,20.33
2019-01-11T22:07:57.283Z,19.77
2019-01-11T22:10:26.282Z,15.90
2019-01-11T22:12:55.419Z,16.53
2019-01-11T22:15:24.477Z,15.83
2019-01-11T22:17:53.506Z,20.83
2019-01-11T22:20:22.436Z,15.30
2019-01-11T22:22:51.496Z,18.87
2019-01-11T22:25:20.412Z,16.67
2019-01-11T22:27:49.353Z,17.20
2019-01-11T22:30:20.320Z,15.00
2019-01-11T22:32:49.333Z,17.77
2019-01-11T22:35:37.612Z,15.97
2019-01-11T22:38:06.547Z,20.40
2019-01-11T22:40:35.607Z,18.53
2019-01-11T22:43:05.001Z,20.60
2019-01-11T22:45:34.083Z,17.50
2019-01-11T22:48:03.267Z,19.87
2019-01-11T22:50:32.283Z,18.97
2019-01-11T22:53:01.268Z,17.07
2019-01-11T22:55:30.291Z,20.17
2019-01-11T22:57:59.344Z,20.10
2019-01-11T23:00:48.917Z,21.70
2019-01-11T23:03:22.045Z,24.27
2019-01-11T23:05:53.161Z,26.77
2019-01-11T23:08:22.609Z,27.97
2019-01-11T23:11:40.159Z,25.27
2019-01-11T23:14:09.295Z,27.23
2019-01-11T23:16:46.273Z,28.13
2019-01-11T23:19:15.277Z,27.20
2019-01-11T23:21:44.301Z,28.63
2019-01-11T23:24:17.379Z,32.73
2019-01-11T23:26:44.180Z,31.93
2019-01-11T23:29:13.220Z,25.80
2019-01-11T23:31:42.328Z,21.80
2019-01-11T23:34:11.347Z,20.00
2019-01-11T23:36:40.486Z,20.27
2019-01-11T23:39:09.408Z,17.70
2019-01-11T23:41:38.522Z,19.43
2019-01-11T23:44:07.558Z,16.23
2019-01-11T23:46:36.500Z,18.93
2019-01-11T23:49:05.523Z,13.13
2019-01-11T23:51:34.762Z,15.00
2019-01-11T23:54:03.770Z,16.57
2019-01-11T23:56:32.796Z,16.27
2019-01-11T23:59:01.754Z,12.37
